Port Republic, VA (24471)

4:57 PM EDT on May 25, 2017 (GMT -0400)
Belhaven Farms | | Change Station
Active Advisory: Areal Flood Warning

Elev 1148 ft 38.32 °N, 78.84 °W | Updated 56 seconds ago

Partly Cloudy
Partly Cloudy
71.2 °F
Feels Like 77 °F
N
11.0
Wind Variable Wind from WNW
Gusts 18.0 mph

Today
High -- | Low -- °F
--% Chance of Precip.
Yesterday
High -- | Low -- °F
Precip. -- in
Pressure 29.48 in
Visibility 10.0 miles
Clouds Clear
Heat Index 77 °F
Dew Point 54 °F
Humidity 55%
Rainfall 0.42 in
Snow Depth Not available.
5:56 AM 8:28 PM
New Moon, 0% visible
METAR KSHD 252035Z AUTO 24013G20KT 10SM CLR 22/11 A2948 RMK AO2 LTG DSNT E T02170110
Pressure 29.48 in
Visibility 10.0 miles
Clouds Clear
Heat Index 77 °F
Dew Point 54 °F
Humidity 55%
Rainfall 0.42 in
Snow Depth Not available.
5:56 AM 8:28 PM
New Moon, 0% visible
METAR KSHD 252035Z AUTO 24013G20KT 10SM CLR 22/11 A2948 RMK AO2 LTG DSNT E T02170110

Get Your Daily Forecast Email!

Thanks for signing up!

Be on the lookout for a verification email in your inbox.

You'll start receiving severe weather alerts in your inbox..

×

10-Day Weather Forecast

Almanac

Astronomy

May. 25, 2017 Rise Set
Actual Time
Civil Twilight
Nautical Twilight
Astronomical Twilight
Moon
Length of Visible Light
Length of Day
Tomorrow will be .
, % of the Moon is Illuminated

Today's Extremes

State Highs State Lows

Community

WunderPhotos

Category 6

Welcome to Category 6. This is the collective home for Weather Underground's featured writeups by Dr. Jeff Masters (right), Bob Henson (left), Chris Burt, and other regular contributors.

Nearby

Air Quality

  Air Quality AQ Index Pollutant
Not available.

Snow Depth

Station Depth Elevation

Earthquake Activity

City Distance Mag. Time & Date
Minimum magnitude displayed is 2.5.

Coastal Water Temperatures

Place Temperature

Stations

Nearby Weather Stations

Station Location Temp. Windchill Dew Point Humidity Wind Precip. Elev Updated Type
                   

Watches & Warnings

Areal Flood Warning
Issued: 2:13 PM EDT May. 25, 2017 – National Weather Service

The National Weather Service in Sterling Virginia has extended the

* Flood Warning for...
south central Rockingham County in western Virginia...
northeastern Augusta County in western Virginia...

* until 530 PM EDT

* at 206 PM EDT, reporting gauges indicate flooding is ongoing on
the North River near Burketown. This river is receding. In
addition, the Middle River near Grottoes is also approaching flood
stage and rising.

* Some locations that will experience flooding include...
Bridgewater, Grottoes, Weyers Cave, Mount Crawford, Montezuma,
and Port Republic.

Floodwaters will cover Fairview Road. Some livestock fields near
Grottoes may be flooded.

Precautionary/preparedness actions...

Turn around, don't drown when encountering flooded roads. Most flood
deaths occur in vehicles.


Lat... Lon 3832 7877 3823 7884 3834 7908 3843 7902


Ads